Ergonot — WDB8189 — position and weather

sailwx.info

Track history (hours):
 
Tides and Currents Weather Stations Pressure Air Temp Water Temp Dewpoint Dewpoint Depression Visibility Wind Speed Wind Dir Waves Ship Positions

Ergonot

Owner: Ergon Marine & Industrial Supply, Vicksburg, MS. More information available from US FCC via Universal Licensing System and Coast Guard Vessel Documentation Center.

Last reported at 2016-Sep-29 08:33 UTC. Time now 2016-Sep-29 11:56 UTC.
Position N 32°20' W 090°54'.

Length 56 m; draft 2 m.

Type: Towing. MMSI: 365905904.

Date/timePositionNaut miles runAvg speedWind from/ knotsBaromVisibWave heightAir tempDewpointWater temp
2016-Sep-29 08:33N 32°20' W 090°54'0 0.0
2016-Sep-29 07:33N 32°20' W 090°54'0 0.0
2016-Sep-29 00:33N 32°20' W 090°54'1 0.4
2016-Sep-28 21:33N 32°21' W 090°53'2 1.1
2016-Sep-28 19:33N 32°23' W 090°53'5 1.8
2016-Sep-28 16:33N 32°18' W 090°55'3 2.6
2016-Sep-28 15:33N 32°20' W 090°54'3 1.0
2016-Sep-28 12:33N 32°23' W 090°53'4 0.9
2016-Sep-28 08:34N 32°20' W 090°54'0 0.0
2016-Sep-28 03:34N 32°20' W 090°54'0 0.0
2016-Sep-28 02:33N 32°20' W 090°54'0 0.0
2016-Sep-27 19:33N 32°20' W 090°54'0 0.0
2016-Sep-27 14:33N 32°20' W 090°54'0 0.0
2016-Sep-27 13:33N 32°20' W 090°54'0 0.0
2016-Sep-27 10:33N 32°20' W 090°54'0 0.0
2016-Sep-27 00:33N 32°20' W 090°54'0 0.0
2016-Sep-26 20:33N 32°20' W 090°54'0 0.0
2016-Sep-26 19:33N 32°20' W 090°54'0 0.0
2016-Sep-26 15:33N 32°20' W 090°54'0 0.0
2016-Sep-26 13:33N 32°20' W 090°54'0 0.0
2016-Sep-26 11:33N 32°20' W 090°54'0 0.0
2016-Sep-26 08:33N 32°20' W 090°54'0 0.0
2016-Sep-26 02:33N 32°20' W 090°54'0 0.0
2016-Sep-26 01:33N 32°20' W 090°54'0 0.0
2016-Sep-26 00:33N 32°20' W 090°54'4 1.5
2016-Sep-25 21:33N 32°21' W 090°59'4 1.1
2016-Sep-25 17:33N 32°20' W 090°54'2 2.5
2016-Sep-25 16:33N 32°18' W 090°55'1 1.5
2016-Sep-25 15:33N 32°19' W 090°54'1 0.9
2016-Sep-25 14:33N 32°20' W 090°54'2 1.1
2016-Sep-25 12:33N 32°22' W 090°53'3 2.9
2016-Sep-25 11:33N 32°20' W 090°54'0 0.0
2016-Sep-25 10:33N 32°20' W 090°54'0 0.0
2016-Sep-25 09:33N 32°20' W 090°54'0 0.0
2016-Sep-25 07:33N 32°20' W 090°54'0 0.0
2016-Sep-25 04:33N 32°20' W 090°54'0 0.0
2016-Sep-25 00:33N 32°20' W 090°54'1 0.6
2016-Sep-24 22:33N 32°21' W 090°53'1 1.4
2016-Sep-24 21:33N 32°21' W 090°55'1 0.6
2016-Sep-24 19:33N 32°21' W 090°54'0 0.0
2016-Sep-24 18:33N 32°21' W 090°54'0 0.0
2016-Sep-24 17:33N 32°21' W 090°54'0 0.0
2016-Sep-24 16:33N 32°21' W 090°54'0 0.1
2016-Sep-24 14:33N 32°20' W 090°54'3 1.3
2016-Sep-24 12:33N 32°18' W 090°55'2 0.9
2016-Sep-24 10:33N 32°20' W 090°54'0 0.0
2016-Sep-24 09:33N 32°20' W 090°54'0 0.0
2016-Sep-24 03:33N 32°20' W 090°54'0 0.0
2016-Sep-24 02:33N 32°20' W 090°54'0 0.0
2016-Sep-24 01:33N 32°20' W 090°54'0 0.0
2016-Sep-24 00:33N 32°20' W 090°54'3 0.6
2016-Sep-23 19:33N 32°22' W 090°53'5 2.6
2016-Sep-23 17:33N 32°21' W 090°59'4 4.3
2016-Sep-23 16:33N 32°19' W 090°55'1 0.6
2016-Sep-23 15:33N 32°18' W 090°55'4 2.0
2016-Sep-23 13:33N 32°22' W 090°53'2 0.6
2016-Sep-23 09:33N 32°20' W 090°54'0 0.0
2016-Sep-23 06:33N 32°20' W 090°54'0 0.0
2016-Sep-23 04:33N 32°20' W 090°54'0 0.0
2016-Sep-23 03:33N 32°20' W 090°54'0 0.0
2016-Sep-23 02:33N 32°20' W 090°54'0 0.0
2016-Sep-23 01:33N 32°20' W 090°54'0 0.0
2016-Sep-23 00:33N 32°20' W 090°54'0 0.0
2016-Sep-22 23:33N 32°20' W 090°54'3 1.0
2016-Sep-22 20:33N 32°22' W 090°53'2 0.2
2016-Sep-22 12:33N 32°23' W 090°55'4 0.5
2016-Sep-22 04:33N 32°20' W 090°54'0 0.0
2016-Sep-22 03:33N 32°20' W 090°54'0 0.0
2016-Sep-22 00:33N 32°20' W 090°54'0 0.0
2016-Sep-21 23:33N 32°20' W 090°54'0 0.0
2016-Sep-21 22:33N 32°20' W 090°54'5 1.5
2016-Sep-21 19:33N 32°21' W 090°59'5 1.7
2016-Sep-21 16:33N 32°21' W 090°53'2 0.3
2016-Sep-21 09:33N 32°20' W 090°54'0 0.0
2016-Sep-21 08:33N 32°20' W 090°54'0 0.0
2016-Sep-21 05:33N 32°20' W 090°54'0 0.0
2016-Sep-21 03:33N 32°20' W 090°54'0 0.0
2016-Sep-21 02:33N 32°20' W 090°54'0 0.0
2016-Sep-20 17:33N 32°20' W 090°54'0 0.0
2016-Sep-20 14:33N 32°20' W 090°54'0 0.0
2016-Sep-20 13:33N 32°20' W 090°54'0 0.0
2016-Sep-20 10:34N 32°20' W 090°54'0 0.0
2016-Sep-20 08:33N 32°20' W 090°54'0 0.0
2016-Sep-20 07:34N 32°20' W 090°54'0 0.0
2016-Sep-20 06:34N 32°20' W 090°54'0 0.0
2016-Sep-20 02:33N 32°20' W 090°54'0 0.0
2016-Sep-19 23:34N 32°20' W 090°54'0 0.0
2016-Sep-19 19:33N 32°20' W 090°54'0 0.0
2016-Sep-19 18:33N 32°20' W 090°54'0 0.0
2016-Sep-19 16:33N 32°20' W 090°54'0 0.0
2016-Sep-19 14:34N 32°20' W 090°54'0 0.0
2016-Sep-19 13:33N 32°20' W 090°54'0 0.0
2016-Sep-19 12:33N 32°20' W 090°54'0 0.0
2016-Sep-19 11:33N 32°20' W 090°54'0 0.0
2016-Sep-19 09:33N 32°20' W 090°54'  
Track history (hours):
 
Tides and Currents Weather Stations Pressure Air Temp Water Temp Dewpoint Dewpoint Depression Visibility Wind Speed Wind Dir Waves Ship Positions

Ergonot

Owner: Ergon Marine & Industrial Supply, Vicksburg, MS. More information available from US FCC via Universal Licensing System and Coast Guard Vessel Documentation Center.

Last reported at 2016-Sep-29 08:33 UTC. Time now 2016-Sep-29 11:56 UTC.
Position N 32°20' W 090°54'.

Length 56 m; draft 2 m.

Type: Towing. MMSI: 365905904.

Date/timePositionNaut miles runAvg speedWind from/ knotsBaromVisibWave heightAir tempDewpointWater temp
2016-Sep-29 08:33N 32°20' W 090°54'0 0.0
2016-Sep-29 07:33N 32°20' W 090°54'0 0.0
2016-Sep-29 00:33N 32°20' W 090°54'1 0.4
2016-Sep-28 21:33N 32°21' W 090°53'2 1.1
2016-Sep-28 19:33N 32°23' W 090°53'5 1.8
2016-Sep-28 16:33N 32°18' W 090°55'3 2.6
2016-Sep-28 15:33N 32°20' W 090°54'3 1.0
2016-Sep-28 12:33N 32°23' W 090°53'4 0.9
2016-Sep-28 08:34N 32°20' W 090°54'0 0.0
2016-Sep-28 03:34N 32°20' W 090°54'0 0.0
2016-Sep-28 02:33N 32°20' W 090°54'0 0.0
2016-Sep-27 19:33N 32°20' W 090°54'0 0.0
2016-Sep-27 14:33N 32°20' W 090°54'0 0.0
2016-Sep-27 13:33N 32°20' W 090°54'0 0.0
2016-Sep-27 10:33N 32°20' W 090°54'0 0.0
2016-Sep-27 00:33N 32°20' W 090°54'0 0.0
2016-Sep-26 20:33N 32°20' W 090°54'0 0.0
2016-Sep-26 19:33N 32°20' W 090°54'0 0.0
2016-Sep-26 15:33N 32°20' W 090°54'0 0.0
2016-Sep-26 13:33N 32°20' W 090°54'0 0.0
2016-Sep-26 11:33N 32°20' W 090°54'0 0.0
2016-Sep-26 08:33N 32°20' W 090°54'0 0.0
2016-Sep-26 02:33N 32°20' W 090°54'0 0.0
2016-Sep-26 01:33N 32°20' W 090°54'0 0.0
2016-Sep-26 00:33N 32°20' W 090°54'4 1.5
2016-Sep-25 21:33N 32°21' W 090°59'4 1.1
2016-Sep-25 17:33N 32°20' W 090°54'2 2.5
2016-Sep-25 16:33N 32°18' W 090°55'1 1.5
2016-Sep-25 15:33N 32°19' W 090°54'1 0.9
2016-Sep-25 14:33N 32°20' W 090°54'2 1.1
2016-Sep-25 12:33N 32°22' W 090°53'3 2.9
2016-Sep-25 11:33N 32°20' W 090°54'0 0.0
2016-Sep-25 10:33N 32°20' W 090°54'0 0.0
2016-Sep-25 09:33N 32°20' W 090°54'0 0.0
2016-Sep-25 07:33N 32°20' W 090°54'0 0.0
2016-Sep-25 04:33N 32°20' W 090°54'0 0.0
2016-Sep-25 00:33N 32°20' W 090°54'1 0.6
2016-Sep-24 22:33N 32°21' W 090°53'1 1.4
2016-Sep-24 21:33N 32°21' W 090°55'1 0.6
2016-Sep-24 19:33N 32°21' W 090°54'0 0.0
2016-Sep-24 18:33N 32°21' W 090°54'0 0.0
2016-Sep-24 17:33N 32°21' W 090°54'0 0.0
2016-Sep-24 16:33N 32°21' W 090°54'0 0.1
2016-Sep-24 14:33N 32°20' W 090°54'3 1.3
2016-Sep-24 12:33N 32°18' W 090°55'2 0.9
2016-Sep-24 10:33N 32°20' W 090°54'0 0.0
2016-Sep-24 09:33N 32°20' W 090°54'0 0.0
2016-Sep-24 03:33N 32°20' W 090°54'0 0.0
2016-Sep-24 02:33N 32°20' W 090°54'0 0.0
2016-Sep-24 01:33N 32°20' W 090°54'0 0.0
2016-Sep-24 00:33N 32°20' W 090°54'3 0.6
2016-Sep-23 19:33N 32°22' W 090°53'5 2.6
2016-Sep-23 17:33N 32°21' W 090°59'4 4.3
2016-Sep-23 16:33N 32°19' W 090°55'1 0.6
2016-Sep-23 15:33N 32°18' W 090°55'4 2.0
2016-Sep-23 13:33N 32°22' W 090°53'2 0.6
2016-Sep-23 09:33N 32°20' W 090°54'0 0.0
2016-Sep-23 06:33N 32°20' W 090°54'0 0.0
2016-Sep-23 04:33N 32°20' W 090°54'0 0.0
2016-Sep-23 03:33N 32°20' W 090°54'0 0.0
2016-Sep-23 02:33N 32°20' W 090°54'0 0.0
2016-Sep-23 01:33N 32°20' W 090°54'0 0.0
2016-Sep-23 00:33N 32°20' W 090°54'0 0.0
2016-Sep-22 23:33N 32°20' W 090°54'3 1.0
2016-Sep-22 20:33N 32°22' W 090°53'2 0.2
2016-Sep-22 12:33N 32°23' W 090°55'4 0.5
2016-Sep-22 04:33N 32°20' W 090°54'0 0.0
2016-Sep-22 03:33N 32°20' W 090°54'0 0.0
2016-Sep-22 00:33N 32°20' W 090°54'0 0.0
2016-Sep-21 23:33N 32°20' W 090°54'0 0.0
2016-Sep-21 22:33N 32°20' W 090°54'5 1.5
2016-Sep-21 19:33N 32°21' W 090°59'5 1.7
2016-Sep-21 16:33N 32°21' W 090°53'2 0.3
2016-Sep-21 09:33N 32°20' W 090°54'0 0.0
2016-Sep-21 08:33N 32°20' W 090°54'0 0.0
2016-Sep-21 05:33N 32°20' W 090°54'0 0.0
2016-Sep-21 03:33N 32°20' W 090°54'0 0.0
2016-Sep-21 02:33N 32°20' W 090°54'0 0.0
2016-Sep-20 17:33N 32°20' W 090°54'0 0.0
2016-Sep-20 14:33N 32°20' W 090°54'0 0.0
2016-Sep-20 13:33N 32°20' W 090°54'0 0.0
2016-Sep-20 10:34N 32°20' W 090°54'0 0.0
2016-Sep-20 08:33N 32°20' W 090°54'0 0.0
2016-Sep-20 07:34N 32°20' W 090°54'0 0.0
2016-Sep-20 06:34N 32°20' W 090°54'0 0.0
2016-Sep-20 02:33N 32°20' W 090°54'0 0.0
2016-Sep-19 23:34N 32°20' W 090°54'0 0.0
2016-Sep-19 19:33N 32°20' W 090°54'0 0.0
2016-Sep-19 18:33N 32°20' W 090°54'0 0.0
2016-Sep-19 16:33N 32°20' W 090°54'0 0.0
2016-Sep-19 14:34N 32°20' W 090°54'0 0.0
2016-Sep-19 13:33N 32°20' W 090°54'0 0.0
2016-Sep-19 12:33N 32°20' W 090°54'0 0.0
2016-Sep-19 11:33N 32°20' W 090°54'0 0.0
2016-Sep-19 09:33N 32°20' W 090°54'  

Dump ship's entire track history